createdAt,value
2023-03-26T00:01:40.899Z,3.60
2023-03-26T00:04:09.463Z,3.00
2023-03-26T00:06:39.995Z,4.10
2023-03-26T00:09:13.813Z,3.40
2023-03-26T00:11:44.201Z,3.70
2023-03-26T00:14:14.254Z,4.00
2023-03-26T00:16:42.976Z,3.20
2023-03-26T00:19:12.937Z,5.30
2023-03-26T00:21:41.896Z,3.90
2023-03-26T00:24:15.503Z,2.80
2023-03-26T00:26:45.039Z,6.10
2023-03-26T00:29:15.788Z,4.70
2023-03-26T00:31:46.680Z,4.00
2023-03-26T00:34:18.807Z,3.00
2023-03-26T00:36:47.582Z,4.30
2023-03-26T00:39:18.107Z,4.40
2023-03-26T00:41:46.629Z,2.90
2023-03-26T00:44:15.103Z,3.50
2023-03-26T00:46:43.715Z,4.30
2023-03-26T00:49:14.988Z,3.60
2023-03-26T00:51:43.625Z,3.70
2023-03-26T00:54:12.987Z,3.90
2023-03-26T00:56:41.581Z,4.20
2023-03-26T00:59:10.700Z,6.20
2023-03-26T01:01:40.136Z,3.30
2023-03-26T01:04:31.720Z,2.80
2023-03-26T01:07:11.965Z,3.30
2023-03-26T01:09:45.208Z,2.80
2023-03-26T01:12:18.856Z,3.90
2023-03-26T01:14:50.972Z,3.20
2023-03-26T01:17:22.269Z,4.80
2023-03-26T01:20:07.747Z,3.30
2023-03-26T01:22:42.255Z,4.70
2023-03-26T01:25:11.433Z,3.00
2023-03-26T01:27:58.373Z,3.20
2023-03-26T01:30:37.313Z,2.30
2023-03-26T01:33:14.434Z,4.20
2023-03-26T01:36:01.975Z,3.40
2023-03-26T01:38:41.162Z,5.00
2023-03-26T01:41:17.914Z,3.30
2023-03-26T01:44:03.269Z,3.00
2023-03-26T01:46:37.226Z,5.40
2023-03-26T01:49:13.284Z,3.80
2023-03-26T01:51:42.839Z,3.90
2023-03-26T01:54:17.188Z,4.50
2023-03-26T01:56:54.728Z,3.70
2023-03-26T01:59:29.220Z,5.20
2023-03-26T02:02:14.625Z,3.50
2023-03-26T02:05:06.630Z,5.00
2023-03-26T02:07:42.308Z,4.00
2023-03-26T02:10:24.557Z,3.80
2023-03-26T02:12:54.390Z,4.30
2023-03-26T02:15:23.595Z,3.60
2023-03-26T02:17:57.761Z,3.20
2023-03-26T02:20:30.465Z,3.90
2023-03-26T02:23:00.036Z,3.40
2023-03-26T02:25:29.228Z,3.90
2023-03-26T02:27:59.232Z,3.60
2023-03-26T02:30:33.947Z,3.70
2023-03-26T02:33:07.637Z,3.10
2023-03-26T02:35:40.627Z,4.30
2023-03-26T02:38:14.594Z,6.20
2023-03-26T02:40:43.615Z,3.90
2023-03-26T02:43:12.141Z,2.80
2023-03-26T02:45:41.513Z,3.50
2023-03-26T02:48:34.853Z,6.00
2023-03-26T02:51:27.832Z,6.50
2023-03-26T02:54:23.473Z,5.60
2023-03-26T02:56:57.951Z,4.10
2023-03-26T02:59:46.564Z,5.00
2023-03-26T03:02:38.591Z,5.40
2023-03-26T03:05:38.285Z,7.70
2023-03-26T03:11:18.175Z,6.90
2023-03-26T03:13:51.949Z,5.30
2023-03-26T03:16:23.859Z,4.60
2023-03-26T03:18:57.785Z,5.60
2023-03-26T03:21:41.831Z,5.30
2023-03-26T03:24:11.817Z,4.50
2023-03-26T03:26:46.418Z,4.40
2023-03-26T03:29:29.251Z,4.20
2023-03-26T03:32:00.287Z,4.70
2023-03-26T03:34:50.934Z,3.30
2023-03-26T03:37:20.461Z,3.40
2023-03-26T03:39:54.466Z,4.20
2023-03-26T03:42:27.734Z,5.90
2023-03-26T03:44:58.278Z,6.40
2023-03-26T03:47:45.764Z,4.40
2023-03-26T03:50:15.584Z,4.20
2023-03-26T03:52:55.995Z,3.90
2023-03-26T03:55:28.709Z,5.50
2023-03-26T03:57:58.571Z,5.30
2023-03-26T04:00:27.641Z,4.50
2023-03-26T04:03:33.696Z,4.10
2023-03-26T04:06:07.078Z,3.80
2023-03-26T04:08:36.531Z,4.90
2023-03-26T04:11:07.729Z,3.30
2023-03-26T04:13:56.135Z,5.00
2023-03-26T04:16:41.872Z,7.50
2023-03-26T04:19:10.500Z,4.00
2023-03-26T04:21:39.775Z,5.70
2023-03-26T04:24:09.853Z,4.10
2023-03-26T04:27:12.905Z,4.20
2023-03-26T04:29:47.226Z,2.70
2023-03-26T04:32:26.706Z,4.00
2023-03-26T04:35:00.517Z,6.00
2023-03-26T04:37:40.000Z,4.20
2023-03-26T04:40:20.715Z,4.80
2023-03-26T04:43:02.668Z,4.00
2023-03-26T04:45:55.136Z,3.80
2023-03-26T04:48:25.951Z,5.40
2023-03-26T04:51:14.452Z,4.20
2023-03-26T04:53:55.980Z,5.60
2023-03-26T05:00:17.396Z,4.80
2023-03-26T05:02:54.381Z,4.10
2023-03-26T05:05:24.921Z,3.80
2023-03-26T05:07:54.341Z,4.90
2023-03-26T05:10:24.341Z,3.50
2023-03-26T05:13:06.370Z,3.50
2023-03-26T05:15:47.372Z,4.30
2023-03-26T05:18:32.588Z,5.00
2023-03-26T05:21:02.780Z,5.20
2023-03-26T05:23:32.025Z,4.70
2023-03-26T05:26:13.258Z,2.80
2023-03-26T05:28:42.597Z,4.30
2023-03-26T05:31:22.615Z,5.90
2023-03-26T05:33:53.592Z,4.20
2023-03-26T05:36:22.743Z,5.80
2023-03-26T05:39:00.916Z,3.40
2023-03-26T05:41:48.324Z,6.70
2023-03-26T05:44:20.238Z,3.90
2023-03-26T05:46:48.952Z,3.10
2023-03-26T05:49:22.576Z,2.90
2023-03-26T05:51:51.966Z,3.00
2023-03-26T05:54:36.509Z,3.40
2023-03-26T05:57:28.606Z,3.70
2023-03-26T06:00:16.610Z,3.70
2023-03-26T06:02:48.287Z,3.90
2023-03-26T06:05:38.191Z,2.80
2023-03-26T06:08:19.722Z,4.20
2023-03-26T06:11:01.713Z,4.40
2023-03-26T06:13:34.503Z,4.40
2023-03-26T06:16:03.263Z,4.80
2023-03-26T06:18:38.338Z,2.30
2023-03-26T06:21:29.403Z,2.50
2023-03-26T06:24:08.014Z,3.30
2023-03-26T06:26:44.437Z,2.80
2023-03-26T06:29:24.259Z,2.00
2023-03-26T06:32:19.774Z,3.70
2023-03-26T06:35:07.532Z,2.60
2023-03-26T06:37:39.172Z,2.50
2023-03-26T06:40:09.184Z,2.50
2023-03-26T06:43:11.099Z,2.00
2023-03-26T06:46:15.714Z,1.70
2023-03-26T06:49:07.093Z,3.60
2023-03-26T06:52:11.112Z,1.40
2023-03-26T06:54:50.026Z,3.30
2023-03-26T06:57:57.120Z,1.60
2023-03-26T07:01:05.331Z,2.00
2023-03-26T07:03:52.637Z,1.80
2023-03-26T07:06:39.730Z,2.90
2023-03-26T07:09:30.369Z,1.60
2023-03-26T07:12:11.338Z,3.10
2023-03-26T07:14:52.625Z,2.10
2023-03-26T07:17:44.682Z,2.20
2023-03-26T07:20:17.368Z,1.90
2023-03-26T07:22:47.338Z,1.10
2023-03-26T07:25:35.715Z,1.70
2023-03-26T07:29:03.750Z,2.70
2023-03-26T07:31:59.010Z,1.30
2023-03-26T07:35:17.443Z,1.30
2023-03-26T07:38:09.861Z,1.20
2023-03-26T07:41:56.101Z,3.70
2023-03-26T07:45:18.867Z,4.40
2023-03-26T07:48:18.872Z,2.90
2023-03-26T07:51:07.538Z,2.80
2023-03-26T07:54:07.022Z,2.90
2023-03-26T07:57:07.672Z,3.70
2023-03-26T08:00:14.701Z,3.20
2023-03-26T08:03:32.253Z,2.50
2023-03-26T08:06:06.048Z,2.00
2023-03-26T08:08:53.955Z,1.90
2023-03-26T08:11:54.895Z,1.90
2023-03-26T08:14:41.890Z,2.00
2023-03-26T08:17:16.421Z,1.60
2023-03-26T08:20:09.321Z,1.70
2023-03-26T08:22:43.419Z,1.60
2023-03-26T08:25:30.108Z,2.70
2023-03-26T08:28:09.965Z,2.10
2023-03-26T08:30:41.891Z,1.40
2023-03-26T08:33:18.640Z,1.00
2023-03-26T08:35:49.104Z,1.90
2023-03-26T08:38:22.334Z,3.30
2023-03-26T08:41:12.617Z,3.00
2023-03-26T08:43:41.473Z,2.40
2023-03-26T08:46:28.014Z,1.30
2023-03-26T08:49:16.943Z,1.40
2023-03-26T08:52:05.071Z,1.20
2023-03-26T08:54:38.956Z,1.80
2023-03-26T08:57:17.167Z,1.10
2023-03-26T08:59:51.749Z,1.60
2023-03-26T09:02:47.882Z,1.50
2023-03-26T09:05:25.965Z,2.20
2023-03-26T09:08:20.635Z,1.50
2023-03-26T09:11:24.758Z,1.10
2023-03-26T09:14:38.193Z,6.40
2023-03-26T09:17:09.568Z,3.40
2023-03-26T09:20:19.042Z,2.00
2023-03-26T09:23:14.650Z,1.70
2023-03-26T09:26:09.983Z,5.80
2023-03-26T09:28:54.981Z,2.40
2023-03-26T09:31:42.496Z,5.60
2023-03-26T09:34:22.679Z,1.30
2023-03-26T09:37:57.329Z,2.30
2023-03-26T09:40:37.514Z,3.60
2023-03-26T09:43:43.882Z,2.40
2023-03-26T09:46:40.618Z,1.80
2023-03-26T09:49:41.565Z,2.20
2023-03-26T09:52:32.150Z,1.90
2023-03-26T09:55:32.637Z,3.70
2023-03-26T09:58:32.473Z,2.70
2023-03-26T10:01:26.464Z,1.20
2023-03-26T10:04:07.569Z,1.90
2023-03-26T10:06:50.531Z,1.40
2023-03-26T10:09:31.718Z,1.80
2023-03-26T10:12:20.781Z,2.60
2023-03-26T10:14:58.873Z,6.40
2023-03-26T10:17:51.476Z,1.70
2023-03-26T10:20:39.985Z,1.80
2023-03-26T10:23:14.860Z,4.20
2023-03-26T10:26:14.596Z,4.50
2023-03-26T10:29:08.027Z,2.30
2023-03-26T10:32:08.724Z,4.50
2023-03-26T10:34:53.488Z,3.60
2023-03-26T10:37:21.992Z,3.90
2023-03-26T10:40:06.221Z,2.70
2023-03-26T10:43:13.114Z,2.30
2023-03-26T10:45:52.110Z,2.60
2023-03-26T10:48:31.166Z,2.80
2023-03-26T10:51:21.729Z,5.80
2023-03-26T10:53:53.932Z,3.50
2023-03-26T10:56:32.821Z,19.80
2023-03-26T10:59:14.015Z,39.40
2023-03-26T11:01:48.687Z,18.90
2023-03-26T11:04:42.083Z,10.90
2023-03-26T11:07:19.185Z,28.10
2023-03-26T11:10:16.887Z,21.50
2023-03-26T11:12:53.270Z,5.60
2023-03-26T11:15:31.600Z,2.40
2023-03-26T11:18:06.254Z,4.20
2023-03-26T11:20:47.069Z,3.00
2023-03-26T11:24:05.515Z,3.70
2023-03-26T11:26:56.133Z,3.90
2023-03-26T11:29:33.141Z,7.30
2023-03-26T11:32:17.861Z,5.50
2023-03-26T11:35:02.666Z,3.90
2023-03-26T11:37:37.914Z,3.10
2023-03-26T11:40:15.970Z,2.10
2023-03-26T11:42:50.319Z,3.20
2023-03-26T11:45:25.646Z,2.40
2023-03-26T11:48:04.780Z,3.30
2023-03-26T11:50:39.004Z,1.00
2023-03-26T11:53:13.826Z,1.20
2023-03-26T11:55:52.685Z,3.90
2023-03-26T11:58:44.158Z,2.60
2023-03-26T12:01:22.937Z,1.60
2023-03-26T12:04:19.084Z,7.50
2023-03-26T12:06:57.843Z,3.90
2023-03-26T12:09:31.722Z,10.10
2023-03-26T12:12:03.327Z,5.00
2023-03-26T12:14:37.245Z,4.10
2023-03-26T12:17:09.139Z,3.40
2023-03-26T12:19:41.877Z,3.40
2023-03-26T12:22:37.535Z,1.20
2023-03-26T12:25:19.396Z,2.30
2023-03-26T12:27:59.032Z,2.80
2023-03-26T12:30:39.717Z,2.00
2023-03-26T12:33:19.952Z,6.60
2023-03-26T12:35:49.589Z,1.60
2023-03-26T12:38:35.969Z,1.80
2023-03-26T12:44:42.568Z,2.80
2023-03-26T12:44:49.858Z,4.00
2023-03-26T12:48:00.299Z,1.60
2023-03-26T12:50:34.190Z,3.40
2023-03-26T12:53:25.689Z,2.50
2023-03-26T12:56:21.959Z,1.30
2023-03-26T12:59:05.803Z,2.20
2023-03-26T13:02:09.471Z,1.30
2023-03-26T13:05:16.384Z,1.70
2023-03-26T13:08:07.912Z,1.00
2023-03-26T13:11:07.623Z,2.00
2023-03-26T13:13:58.172Z,1.10
2023-03-26T13:16:48.248Z,1.70
2023-03-26T13:19:21.583Z,1.30
2023-03-26T13:24:31.383Z,1.50
2023-03-26T13:27:06.609Z,1.40
2023-03-26T13:29:44.097Z,0.90
2023-03-26T13:32:15.076Z,1.60
2023-03-26T13:35:07.969Z,1.50
2023-03-26T13:37:55.255Z,3.10
2023-03-26T13:40:40.011Z,1.60
2023-03-26T13:43:14.451Z,1.90
2023-03-26T13:46:22.803Z,2.00
2023-03-26T13:48:58.741Z,1.80
2023-03-26T13:51:48.567Z,0.80
2023-03-26T13:54:36.038Z,2.30
2023-03-26T13:57:10.487Z,1.40
2023-03-26T14:00:09.762Z,1.30
2023-03-26T14:02:43.029Z,0.90
2023-03-26T14:05:42.849Z,1.40
2023-03-26T14:08:20.538Z,1.90
2023-03-26T14:10:55.977Z,1.50
2023-03-26T14:13:33.284Z,1.80
2023-03-26T14:16:23.832Z,1.40
2023-03-26T14:19:25.021Z,1.50
2023-03-26T14:22:40.756Z,3.10
2023-03-26T14:25:46.914Z,0.90
2023-03-26T14:28:33.059Z,2.70
2023-03-26T14:31:20.956Z,1.50
2023-03-26T14:34:39.020Z,1.40
2023-03-26T14:37:33.118Z,2.30
2023-03-26T14:40:17.242Z,2.00
2023-03-26T14:42:58.096Z,1.60
2023-03-26T14:45:46.113Z,2.80
2023-03-26T14:48:54.495Z,4.00
2023-03-26T14:51:58.299Z,1.90
2023-03-26T14:54:31.588Z,2.30
2023-03-26T14:57:06.524Z,2.00
2023-03-26T14:59:47.579Z,2.40
2023-03-26T15:02:38.044Z,1.40
2023-03-26T15:05:25.312Z,2.30
2023-03-26T15:08:24.721Z,1.40
2023-03-26T15:11:36.140Z,1.20
2023-03-26T15:14:24.860Z,3.50
2023-03-26T15:17:09.703Z,2.10
2023-03-26T15:19:44.322Z,2.50
2023-03-26T15:22:54.498Z,2.60
2023-03-26T15:26:00.818Z,1.70
2023-03-26T15:28:57.435Z,2.00
2023-03-26T15:31:47.840Z,4.20
2023-03-26T15:34:38.658Z,2.90
2023-03-26T15:37:26.795Z,1.90
2023-03-26T15:40:19.447Z,3.40
2023-03-26T15:43:21.471Z,5.60
2023-03-26T15:46:08.886Z,1.30
2023-03-26T15:48:46.910Z,1.10
2023-03-26T15:51:52.656Z,2.10
2023-03-26T15:54:37.103Z,1.40
2023-03-26T15:57:20.156Z,2.10
2023-03-26T16:00:00.729Z,1.10
2023-03-26T16:03:10.167Z,1.80
2023-03-26T16:06:14.276Z,2.20
2023-03-26T16:08:54.909Z,1.90
2023-03-26T16:11:43.990Z,2.80
2023-03-26T16:14:23.304Z,2.50
2023-03-26T16:16:54.433Z,1.70
2023-03-26T16:19:23.233Z,1.20
2023-03-26T16:22:02.195Z,2.50
2023-03-26T16:24:34.925Z,1.80
2023-03-26T16:29:56.497Z,4.40
2023-03-26T16:32:36.649Z,3.60
2023-03-26T16:35:39.196Z,3.10
2023-03-26T16:38:16.284Z,3.70
2023-03-26T16:40:59.794Z,4.00
2023-03-26T16:43:43.578Z,5.10
2023-03-26T16:46:47.581Z,5.80
2023-03-26T16:49:31.057Z,4.50
2023-03-26T16:52:09.790Z,4.40
2023-03-26T16:55:01.436Z,3.20
2023-03-26T16:57:37.137Z,4.30
2023-03-26T17:00:16.651Z,6.00
2023-03-26T17:03:03.844Z,4.70
2023-03-26T17:05:51.253Z,7.10
2023-03-26T17:08:53.485Z,7.30
2023-03-26T17:11:38.817Z,7.50
2023-03-26T17:14:26.223Z,7.70
2023-03-26T17:17:30.827Z,6.20
2023-03-26T17:20:51.138Z,8.30
2023-03-26T17:23:28.146Z,6.10
2023-03-26T17:26:15.801Z,8.10
2023-03-26T17:29:09.418Z,7.00
2023-03-26T17:31:53.564Z,6.40
2023-03-26T17:34:49.344Z,7.50
2023-03-26T17:37:19.100Z,5.50
2023-03-26T17:39:47.578Z,5.70
2023-03-26T17:42:16.258Z,7.20
2023-03-26T17:44:49.325Z,5.50
2023-03-26T17:47:33.777Z,7.40
2023-03-26T17:50:37.813Z,5.70
2023-03-26T17:53:31.375Z,10.10
2023-03-26T17:56:11.647Z,4.70
2023-03-26T17:58:48.046Z,3.70
2023-03-26T18:01:38.543Z,7.40
2023-03-26T18:04:15.919Z,5.40
2023-03-26T18:07:16.933Z,7.90
2023-03-26T18:10:20.060Z,9.70
2023-03-26T18:13:15.924Z,9.50
2023-03-26T18:16:09.654Z,11.80
2023-03-26T18:18:51.183Z,10.90
2023-03-26T18:21:33.366Z,12.00
2023-03-26T18:24:05.241Z,13.10
2023-03-26T18:26:45.084Z,12.90
2023-03-26T18:29:20.102Z,13.20
2023-03-26T18:31:53.432Z,12.00
2023-03-26T18:34:22.493Z,17.60
2023-03-26T18:37:03.118Z,18.20
2023-03-26T18:39:31.554Z,28.30
2023-03-26T18:42:00.686Z,28.40
2023-03-26T18:44:29.282Z,28.00
2023-03-26T18:46:57.695Z,26.60
2023-03-26T18:49:30.347Z,26.20
2023-03-26T18:51:58.855Z,27.70
2023-03-26T18:54:32.379Z,26.60
2023-03-26T18:57:15.196Z,26.10
2023-03-26T18:59:45.761Z,25.20
2023-03-26T19:02:14.924Z,25.70
2023-03-26T19:04:47.038Z,22.50
2023-03-26T19:07:25.467Z,22.90
2023-03-26T19:09:56.629Z,29.20
2023-03-26T19:12:34.118Z,28.80
2023-03-26T19:15:16.126Z,24.50
2023-03-26T19:17:53.604Z,22.80
2023-03-26T19:20:26.611Z,23.90
2023-03-26T19:22:57.049Z,26.70
2023-03-26T19:25:31.761Z,22.50
2023-03-26T19:28:00.291Z,22.80
2023-03-26T19:30:35.270Z,22.90
2023-03-26T19:33:13.718Z,26.10
2023-03-26T19:35:45.568Z,25.80
2023-03-26T19:38:19.398Z,27.10
2023-03-26T19:40:48.118Z,22.50
2023-03-26T19:43:17.933Z,23.70
2023-03-26T19:46:04.987Z,22.90
2023-03-26T19:48:46.113Z,15.80
2023-03-26T19:54:00.358Z,18.10
2023-03-26T19:56:30.685Z,23.10
2023-03-26T19:58:59.534Z,22.00
2023-03-26T20:01:30.505Z,20.30
2023-03-26T20:04:02.409Z,21.00
2023-03-26T20:06:42.245Z,22.30
2023-03-26T20:09:13.819Z,23.30
2023-03-26T20:11:42.675Z,21.00
2023-03-26T20:14:17.256Z,19.10
2023-03-26T20:16:46.247Z,19.10
2023-03-26T20:19:15.652Z,15.30
2023-03-26T20:21:45.012Z,17.20
2023-03-26T20:24:16.475Z,19.40
2023-03-26T20:26:48.462Z,15.10
2023-03-26T20:29:17.703Z,15.60
2023-03-26T20:31:46.251Z,13.60
2023-03-26T20:34:23.766Z,14.60
2023-03-26T20:36:56.118Z,16.40
2023-03-26T20:39:25.342Z,15.30
2023-03-26T20:41:55.016Z,14.80
2023-03-26T20:44:26.926Z,16.20
2023-03-26T20:46:59.079Z,18.10
2023-03-26T20:49:29.727Z,16.90
2023-03-26T20:51:59.749Z,18.10
2023-03-26T20:54:30.484Z,18.50
2023-03-26T20:56:59.100Z,23.10
2023-03-26T20:59:28.624Z,17.00
2023-03-26T21:01:58.147Z,18.00
2023-03-26T21:04:27.505Z,16.30
2023-03-26T21:07:07.249Z,17.40
2023-03-26T21:09:45.418Z,18.90
2023-03-26T21:12:30.434Z,20.00
2023-03-26T21:14:59.589Z,16.20
2023-03-26T21:17:28.576Z,17.80
2023-03-26T21:20:00.624Z,16.50
2023-03-26T21:22:40.588Z,21.80
2023-03-26T21:25:23.019Z,18.70
2023-03-26T21:28:17.354Z,18.70
2023-03-26T21:30:47.183Z,19.50
2023-03-26T21:33:15.638Z,20.20
2023-03-26T21:35:45.164Z,20.60
2023-03-26T21:38:18.000Z,18.10
2023-03-26T21:40:52.955Z,19.80
2023-03-26T21:43:27.222Z,20.00
2023-03-26T21:45:59.047Z,20.30
2023-03-26T21:48:29.286Z,18.40
2023-03-26T21:51:02.595Z,17.90
2023-03-26T21:53:31.344Z,18.90
2023-03-26T21:56:21.132Z,20.00
2023-03-26T21:59:21.831Z,18.40
2023-03-26T22:02:02.960Z,21.40
2023-03-26T22:04:57.457Z,17.80
2023-03-26T22:07:48.696Z,20.90
2023-03-26T22:10:17.443Z,21.20
2023-03-26T22:12:46.167Z,19.30
2023-03-26T22:15:15.028Z,17.30
2023-03-26T22:17:43.817Z,19.00
2023-03-26T22:20:14.948Z,20.40
2023-03-26T22:22:49.036Z,20.10
2023-03-26T22:25:20.156Z,18.10
2023-03-26T22:27:50.758Z,19.40
2023-03-26T22:30:21.037Z,20.20
2023-03-26T22:32:50.469Z,17.30
2023-03-26T22:35:19.725Z,19.00
2023-03-26T22:37:48.661Z,18.60
2023-03-26T22:40:18.160Z,18.80
2023-03-26T22:42:46.966Z,20.00
2023-03-26T22:45:15.473Z,18.70
2023-03-26T22:47:45.197Z,18.70
2023-03-26T22:50:13.849Z,19.30
2023-03-26T22:52:42.631Z,20.60
2023-03-26T22:55:12.173Z,31.40
2023-03-26T22:57:41.530Z,22.30
2023-03-26T23:00:16.530Z,22.20
2023-03-26T23:02:46.759Z,21.20
2023-03-26T23:05:17.738Z,19.60
2023-03-26T23:07:46.493Z,21.10
2023-03-26T23:10:14.969Z,22.50
2023-03-26T23:12:43.520Z,22.50
2023-03-26T23:15:12.157Z,26.60
2023-03-26T23:17:42.999Z,22.00
2023-03-26T23:20:15.527Z,22.80
2023-03-26T23:22:48.951Z,25.10
2023-03-26T23:25:17.529Z,21.40
2023-03-26T23:27:46.128Z,21.10
2023-03-26T23:30:19.549Z,20.20
2023-03-26T23:32:50.907Z,21.10
2023-03-26T23:35:19.453Z,21.20
2023-03-26T23:37:50.977Z,21.50
2023-03-26T23:40:22.093Z,22.70
2023-03-26T23:42:50.688Z,21.20
2023-03-26T23:45:25.123Z,19.40
2023-03-26T23:47:54.015Z,21.40
2023-03-26T23:50:29.691Z,18.40
2023-03-26T23:52:58.963Z,27.30
2023-03-26T23:55:35.701Z,19.30
2023-03-26T23:58:09.924Z,19.60
